Time;durP1;ratioP1;P1;durP2;ratioP2;P2;SDS_P1;SDS_P2;PMS_P1;PMS_P2;Temp;Humidity;BMP_temperature;BMP_pressure;BME280_temperature;BME280_humidity;BME280_pressure;Samples;Min_cycle;Max_cycle;Signal;HPM_P1;HPM_P2
2023/05/21 05:03:37;;;;;;;22.15;16.05;;;15.40;99.90;;;;;;4918363;23;20069;-69
2023/05/21 05:06:04;;;;;;;22.38;17.13;;;15.50;99.90;;;;;;4865859;29;20033;-70
2023/05/21 05:08:30;;;;;;;22.35;16.17;;;15.60;99.90;;;;;;4861423;29;20029;-69
2023/05/21 05:10:56;;;;;;;21.67;16.83;;;15.60;99.90;;;;;;4876582;29;20335;-70
2023/05/21 05:13:22;;;;;;;20.67;16.27;;;15.60;99.90;;;;;;4872409;29;20028;-69
2023/05/21 05:15:47;;;;;;;23.63;16.65;;;15.60;99.90;;;;;;4863348;29;20032;-69
2023/05/21 05:18:13;;;;;;;21.88;16.25;;;15.60;99.90;;;;;;4879557;29;20327;-70
2023/05/21 05:20:39;;;;;;;22.98;16.23;;;15.70;99.90;;;;;;4874202;29;20098;-71
2023/05/21 05:23:05;;;;;;;20.88;16.10;;;15.70;99.90;;;;;;4873657;29;20025;-69
2023/05/21 05:25:31;;;;;;;20.92;15.23;;;15.70;99.90;;;;;;4890450;29;20033;-70
2023/05/21 05:27:57;;;;;;;20.13;15.65;;;15.80;99.90;;;;;;4873602;29;20048;-69
2023/05/21 05:30:23;;;;;;;19.55;16.02;;;15.80;99.90;;;;;;4873752;29;20029;-70
2023/05/21 05:32:49;;;;;;;22.20;15.98;;;15.90;99.90;;;;;;4873958;29;20029;-68
2023/05/21 05:35:15;;;;;;;22.17;16.98;;;16.00;99.90;;;;;;4870338;29;20025;-69
2023/05/21 05:37:41;;;;;;;21.35;15.15;;;16.00;99.90;;;;;;4871955;29;20064;-69
2023/05/21 05:40:07;;;;;;;20.00;15.32;;;16.00;99.90;;;;;;4871463;29;20053;-71
2023/05/21 05:42:33;;;;;;;20.27;14.98;;;16.00;99.90;;;;;;4855460;29;20077;-71
2023/05/21 05:45:03;;;;;;;19.02;14.55;;;16.10;99.90;;;;;;4855036;29;20259;-71
2023/05/21 05:47:30;;;;;;;21.42;16.00;;;16.30;99.90;;;;;;4855324;29;20214;-70
2023/05/21 05:49:56;;;;;;;19.60;15.32;;;16.40;99.90;;;;;;4854880;29;20264;-70
2023/05/21 05:52:21;;;;;;;19.90;15.00;;;16.50;99.90;;;;;;4871902;29;20029;-70
2023/05/21 05:54:47;;;;;;;20.65;16.05;;;16.60;99.90;;;;;;4854994;29;20029;-70
2023/05/21 05:57:13;;;;;;;18.83;15.10;;;16.70;99.90;;;;;;4880194;29;20204;-70
2023/05/21 05:59:39;;;;;;;19.30;14.80;;;16.80;99.90;;;;;;4873654;29;20318;-70
2023/05/21 06:02:04;;;;;;;17.67;14.18;;;16.80;99.90;;;;;;4863440;29;20083;-70
2023/05/21 06:04:30;;;;;;;20.08;14.77;;;16.80;99.90;;;;;;4861370;29;20029;-72
2023/05/21 06:06:56;;;;;;;22.35;15.20;;;16.90;99.90;;;;;;4852531;29;20060;-71
2023/05/21 06:09:23;;;;;;;20.50;15.15;;;16.90;99.90;;;;;;4836746;29;20033;-70
2023/05/21 06:11:49;;;;;;;18.80;14.98;;;16.90;99.90;;;;;;4850091;29;20037;-70
2023/05/21 06:14:15;;;;;;;20.55;14.88;;;16.90;99.90;;;;;;4870585;29;20105;-70
2023/05/21 06:16:41;;;;;;;20.08;14.65;;;16.90;99.90;;;;;;4851707;29;20196;-70
2023/05/21 06:19:06;;;;;;;19.45;13.88;;;16.90;99.90;;;;;;4870311;29;20311;-71
2023/05/21 06:21:32;;;;;;;17.75;13.90;;;16.90;99.90;;;;;;4871136;29;20033;-71
2023/05/21 06:23:58;;;;;;;18.17;14.60;;;16.90;99.90;;;;;;4850829;29;20033;-71
2023/05/21 06:26:25;;;;;;;18.73;14.32;;;17.00;99.90;;;;;;4863585;29;20037;-71
2023/05/21 06:28:51;;;;;;;18.77;13.98;;;17.10;99.90;;;;;;4850882;29;20049;-71
2023/05/21 06:31:17;;;;;;;20.60;14.82;;;17.10;99.90;;;;;;4846340;29;20143;-70
2023/05/21 06:33:43;;;;;;;18.70;14.38;;;17.30;99.90;;;;;;4851230;29;20248;-71
2023/05/21 06:36:09;;;;;;;19.17;14.57;;;17.40;99.90;;;;;;4861490;29;20028;-73
2023/05/21 06:38:35;;;;;;;18.80;14.95;;;17.60;99.90;;;;;;4853954;29;20036;-75
2023/05/21 06:41:02;;;;;;;19.95;14.77;;;17.60;99.90;;;;;;4888829;29;20040;-71
2023/05/21 06:43:53;;;;;;;18.60;13.93;;;17.80;99.90;;;;;;4872722;29;20037;-71
2023/05/21 06:46:37;;;;;;;19.90;14.32;;;17.90;99.90;;;;;;4888995;29;20039;-70
2023/05/21 06:49:06;;;;;;;18.58;13.88;;;18.00;99.90;;;;;;4871946;29;20092;-70
2023/05/21 06:51:33;;;;;;;16.00;13.05;;;18.00;99.90;;;;;;4872371;29;20048;-70
2023/05/21 06:53:59;;;;;;;21.65;13.73;;;18.00;99.90;;;;;;4863235;29;20025;-70
2023/05/21 06:56:25;;;;;;;16.83;12.43;;;18.00;99.90;;;;;;4845587;29;20049;-70
2023/05/21 06:58:53;;;;;;;16.80;13.20;;;18.00;99.90;;;;;;4839019;29;20149;-72
2023/05/21 07:01:21;;;;;;;16.73;13.10;;;18.10;99.90;;;;;;4850387;29;20093;-70
2023/05/21 07:03:47;;;;;;;15.60;12.80;;;18.20;99.90;;;;;;4838508;29;20033;-71
2023/05/21 07:06:13;;;;;;;17.80;13.13;;;18.30;99.90;;;;;;4850273;29;20077;-71
2023/05/21 07:08:39;;;;;;;16.30;13.27;;;18.40;99.90;;;;;;4851234;29;20064;-71
2023/05/21 07:11:05;;;;;;;17.50;13.55;;;18.40;99.90;;;;;;4869496;29;20037;-71
2023/05/21 07:13:30;;;;;;;18.30;13.18;;;18.40;99.90;;;;;;4837914;29;20201;-70
2023/05/21 07:15:56;;;;;;;17.55;13.88;;;18.40;99.90;;;;;;4870445;29;20256;-70
2023/05/21 07:18:23;;;;;;;16.38;12.82;;;18.40;99.90;;;;;;4852349;29;20037;-69
2023/05/21 07:20:49;;;;;;;16.40;13.25;;;18.60;99.90;;;;;;4870396;29;20030;-70
2023/05/21 07:23:15;;;;;;;19.35;12.98;;;18.90;99.90;;;;;;4850643;29;20057;-69
2023/05/21 07:25:41;;;;;;;18.35;12.98;;;19.10;99.90;;;;;;4869264;29;20082;-70
2023/05/21 07:28:06;;;;;;;18.45;12.63;;;19.30;99.90;;;;;;4852308;29;20078;-69
2023/05/21 07:30:32;;;;;;;15.05;12.38;;;19.40;99.90;;;;;;4865686;29;20036;-69
2023/05/21 07:33:00;;;;;;;15.55;12.38;;;19.50;99.90;;;;;;4863849;29;20274;-71
2023/05/21 07:35:25;;;;;;;15.77;12.23;;;19.60;99.90;;;;;;4846969;29;20076;-70
2023/05/21 07:37:51;;;;;;;16.90;13.15;;;19.70;99.90;;;;;;4886784;29;20053;-70
2023/05/21 07:40:17;;;;;;;16.73;12.73;;;19.70;99.90;;;;;;4871680;29;20029;-72
2023/05/21 07:42:43;;;;;;;15.88;11.80;;;19.90;99.90;;;;;;4854888;29;20372;-71
2023/05/21 07:45:11;;;;;;;15.93;12.45;;;20.10;99.90;;;;;;4844981;29;20025;-71
2023/05/21 07:47:40;;;;;;;13.27;11.68;;;20.10;99.90;;;;;;4850253;29;20022;-72
2023/05/21 07:50:06;;;;;;;17.13;11.77;;;20.10;99.90;;;;;;4847133;29;20223;-71
2023/05/21 07:52:32;;;;;;;14.02;11.60;;;20.40;99.90;;;;;;4856945;29;20034;-72
2023/05/21 07:55:00;;;;;;;13.32;10.95;;;20.50;99.90;;;;;;4854076;29;20026;-70
2023/05/21 07:57:29;;;;;;;14.82;11.60;;;20.70;99.90;;;;;;4853567;29;20124;-71
2023/05/21 07:59:58;;;;;;;15.02;10.25;;;20.80;99.90;;;;;;4866113;29;20033;-71
2023/05/21 08:02:24;;;;;;;13.77;10.55;;;20.90;99.90;;;;;;4874828;29;20315;-71
2023/05/21 08:04:51;;;;;;;14.77;11.43;;;21.20;99.90;;;;;;4876426;29;20033;-70
2023/05/21 08:07:18;;;;;;;16.27;11.32;;;21.30;99.70;;;;;;4876371;29;20025;-69
2023/05/21 08:09:44;;;;;;;14.82;11.38;;;21.50;99.30;;;;;;4877091;29;20116;-71
2023/05/21 08:12:14;;;;;;;18.40;11.60;;;21.60;99.50;;;;;;4863023;29;20030;-69
2023/05/21 08:14:41;;;;;;;15.45;11.52;;;21.70;98.80;;;;;;4858076;29;20021;-71
2023/05/21 08:17:10;;;;;;;13.95;10.32;;;21.80;98.60;;;;;;4852997;29;20038;-70
2023/05/21 08:19:37;;;;;;;15.98;10.98;;;21.80;98.50;;;;;;4872671;29;20100;-71
2023/05/21 08:22:05;;;;;;;15.32;10.50;;;22.00;97.90;;;;;;4852738;29;20045;-70
2023/05/21 08:24:31;;;;;;;14.25;10.90;;;22.00;97.70;;;;;;4856345;29;20299;-70
2023/05/21 08:26:57;;;;;;;13.23;10.98;;;22.20;97.40;;;;;;4853581;29;20094;-71
2023/05/21 08:29:23;;;;;;;14.85;11.55;;;22.20;96.70;;;;;;4855006;29;20033;-70
2023/05/21 08:31:48;;;;;;;13.50;11.43;;;22.10;96.70;;;;;;4853464;29;20304;-70
2023/05/21 08:34:15;;;;;;;19.50;11.05;;;22.10;97.10;;;;;;4857350;29;20222;-70
2023/05/21 08:36:48;;;;;;;12.70;10.90;;;22.20;96.90;;;;;;4861658;29;20022;-70
2023/05/21 08:39:33;;;;;;;12.18;9.57;;;22.20;96.40;;;;;;4860710;29;20081;-70
2023/05/21 08:42:08;;;;;;;13.65;10.15;;;22.40;96.30;;;;;;4868384;29;20029;-71
2023/05/21 08:44:36;;;;;;;12.85;9.73;;;22.60;96.50;;;;;;4874516;29;20192;-71
2023/05/21 08:47:05;;;;;;;11.48;9.75;;;22.60;95.60;;;;;;4874519;29;20322;-70
2023/05/21 08:49:33;;;;;;;12.57;9.35;;;22.50;95.40;;;;;;4874281;29;20040;-70
2023/05/21 08:52:00;;;;;;;14.87;10.60;;;22.50;95.70;;;;;;4859039;29;20052;-69
2023/05/21 08:54:26;;;;;;;12.07;9.98;;;22.30;95.00;;;;;;4874401;29;20032;-72
2023/05/21 08:56:54;;;;;;;11.55;9.35;;;22.30;95.00;;;;;;4865856;29;20021;-74
2023/05/21 08:59:20;;;;;;;10.50;9.10;;;22.30;94.90;;;;;;4860464;29;20032;-72
2023/05/21 09:01:48;;;;;;;12.10;9.20;;;22.60;94.80;;;;;;4873211;29;20041;-73
2023/05/21 09:04:22;;;;;;;9.77;8.15;;;22.70;94.80;;;;;;4874260;29;20041;-74
2023/05/21 09:06:52;;;;;;;10.13;7.85;;;22.70;94.20;;;;;;4874385;29;20033;-72
2023/05/21 09:09:38;;;;;;;9.93;8.05;;;22.80;94.40;;;;;;4874155;29;20033;-72
2023/05/21 09:12:05;;;;;;;12.30;7.88;;;22.90;94.20;;;;;;4890407;29;20029;-73
2023/05/21 09:14:31;;;;;;;10.45;7.15;;;22.90;93.50;;;;;;4874261;29;20319;-72
2023/05/21 09:17:13;;;;;;;10.98;7.68;;;22.70;93.40;;;;;;4860166;29;20029;-73
2023/05/21 09:20:09;;;;;;;11.30;7.60;;;22.80;93.60;;;;;;4873977;29;20091;-74
2023/05/21 09:22:43;;;;;;;9.43;7.53;;;22.80;93.30;;;;;;4871764;29;20092;-73
2023/05/21 09:25:10;;;;;;;10.98;8.23;;;22.70;92.90;;;;;;4871302;29;20037;-72
2023/05/21 09:27:37;;;;;;;9.98;8.02;;;22.70;92.90;;;;;;4872228;29;20033;-73
2023/05/21 09:30:05;;;;;;;9.90;8.13;;;22.50;93.00;;;;;;4872138;29;20112;-72
2023/05/21 09:32:31;;;;;;;9.98;7.47;;;22.40;93.10;;;;;;4855366;29;20050;-71
2023/05/21 09:35:05;;;;;;;10.93;7.85;;;22.40;92.90;;;;;;4867504;29;20215;-72
2023/05/21 09:37:36;;;;;;;10.10;7.30;;;22.40;92.50;;;;;;4848308;29;20145;-71
2023/05/21 09:40:10;;;;;;;7.90;6.80;;;22.60;92.80;;;;;;4873704;29;20021;-73
2023/05/21 09:42:38;;;;;;;12.57;7.15;;;22.80;92.60;;;;;;4873752;29;20085;-73
2023/05/21 09:45:08;;;;;;;8.77;6.90;;;23.10;92.20;;;;;;4873775;29;20031;-74
2023/05/21 09:47:39;;;;;;;11.63;7.10;;;23.40;91.50;;;;;;4873972;29;20021;-75
2023/05/21 09:50:05;;;;;;;10.07;7.43;;;23.60;91.30;;;;;;4890310;29;20092;-75
2023/05/21 09:52:34;;;;;;;10.05;7.68;;;23.60;90.80;;;;;;4890123;29;20040;-72
2023/05/21 09:55:04;;;;;;;10.35;6.75;;;23.90;90.80;;;;;;4889705;29;20322;-72
2023/05/21 09:57:30;;;;;;;8.55;7.25;;;24.20;90.60;;;;;;4874386;29;20048;-73
2023/05/21 09:59:55;;;;;;;11.15;7.10;;;24.30;89.60;;;;;;4884150;29;20021;-72
2023/05/21 10:02:23;;;;;;;8.18;6.40;;;24.60;88.60;;;;;;4875679;29;20042;-73
2023/05/21 10:04:50;;;;;;;9.38;6.32;;;24.90;89.40;;;;;;4870558;29;20046;-71
2023/05/21 10:07:20;;;;;;;8.80;6.53;;;25.10;87.50;;;;;;4870442;29;20030;-76
2023/05/21 10:09:49;;;;;;;9.95;6.95;;;25.20;87.50;;;;;;4871682;29;20304;-73
2023/05/21 10:12:17;;;;;;;10.00;7.00;;;25.20;87.70;;;;;;4851119;29;20061;-73
2023/05/21 10:14:46;;;;;;;9.07;6.93;;;25.30;85.50;;;;;;4864404;29;20104;-72
2023/05/21 10:17:12;;;;;;;10.10;6.95;;;25.60;85.80;;;;;;4870363;29;20092;-72
2023/05/21 10:19:40;;;;;;;9.38;7.97;;;25.80;85.80;;;;;;4870934;29;20066;-71
2023/05/21 10:22:06;;;;;;;10.88;7.57;;;25.90;85.90;;;;;;4851023;29;20034;-70
2023/05/21 10:24:33;;;;;;;8.63;6.25;;;26.10;85.00;;;;;;4862631;29;20063;-71
2023/05/21 10:27:01;;;;;;;9.25;6.28;;;26.10;84.40;;;;;;4876689;29;20101;-70
2023/05/21 10:29:29;;;;;;;8.53;7.20;;;26.10;84.20;;;;;;4869819;29;20369;-71
2023/05/21 10:31:55;;;;;;;8.85;6.95;;;26.00;84.00;;;;;;4870823;29;20029;-71
2023/05/21 10:34:23;;;;;;;9.27;7.20;;;26.00;83.40;;;;;;4878122;29;20294;-72
2023/05/21 10:36:51;;;;;;;8.15;7.20;;;26.00;83.70;;;;;;4878394;29;20060;-73
2023/05/21 10:39:19;;;;;;;8.52;7.15;;;26.00;83.70;;;;;;4870475;29;20033;-73
2023/05/21 10:42:11;;;;;;;;;;;25.90;82.50;;;;;;4852444;29;20085;-71
2023/05/21 10:44:55;;;;;;;9.05;7.28;;;25.80;83.40;;;;;;4835344;29;19908;-72
2023/05/21 10:48:04;;;;;;;9.07;7.53;;;25.60;84.80;;;;;;4870652;29;20029;-80
2023/05/21 10:50:52;;;;;;;8.63;6.70;;;25.90;85.00;;;;;;4859298;29;20338;-73
2023/05/21 10:53:35;;;;;;;11.70;7.38;;;26.00;84.70;;;;;;4870239;29;20040;-73
2023/05/21 10:56:13;;;;;;;9.38;7.55;;;26.30;84.20;;;;;;4870436;29;20307;-73
2023/05/21 10:58:45;;;;;;;8.90;7.50;;;26.40;83.60;;;;;;4866809;29;20077;-73
2023/05/21 11:01:12;;;;;;;11.63;7.85;;;26.40;83.10;;;;;;4870194;29;20037;-72
2023/05/21 11:03:38;;;;;;;8.48;7.47;;;26.50;83.00;;;;;;4869398;29;20071;-73
2023/05/21 11:06:05;;;;;;;8.13;6.72;;;26.80;82.30;;;;;;4872987;29;20323;-72
2023/05/21 11:08:34;;;;;;;8.40;7.47;;;26.90;82.80;;;;;;4880750;29;20032;-70
2023/05/21 11:11:01;;;;;;;7.88;6.05;;;27.40;81.40;;;;;;4884671;29;20033;-71
2023/05/21 11:13:43;;;;;;;8.65;6.47;;;27.30;80.00;;;;;;4869482;29;20048;-72
2023/05/21 11:16:14;;;;;;;8.50;6.60;;;27.40;79.40;;;;;;4870209;29;20342;-71
2023/05/21 11:18:39;;;;;;;7.93;6.38;;;27.60;78.80;;;;;;4869902;29;20230;-71
2023/05/21 11:21:08;;;;;;;7.82;6.40;;;27.60;78.80;;;;;;4876125;29;20029;-73
2023/05/21 11:23:58;;;;;;;8.38;6.97;;;27.60;78.80;;;;;;4887753;29;20096;-72
2023/05/21 11:26:25;;;;;;;7.75;6.22;;;27.60;79.20;;;;;;4876111;29;20056;-72
2023/05/21 11:29:03;;;;;;;11.57;7.00;;;27.80;78.50;;;;;;4871977;29;20040;-71
2023/05/21 11:31:37;;;;;;;8.93;7.05;;;28.10;78.80;;;;;;4888109;29;20074;-71
2023/05/21 11:34:18;;;;;;;7.65;6.50;;;28.20;77.60;;;;;;4874083;29;20033;-72
2023/05/21 11:36:49;;;;;;;7.53;6.57;;;28.20;77.40;;;;;;4869832;29;20033;-72
2023/05/21 11:39:21;;;;;;;8.75;6.25;;;28.10;77.40;;;;;;4869706;29;20048;-70
2023/05/21 11:41:58;;;;;;;6.78;5.90;;;28.40;76.10;;;;;;4870065;29;20033;-72
2023/05/21 11:44:50;;;;;;;7.20;6.03;;;28.70;76.30;;;;;;4869446;29;20046;-71
2023/05/21 11:47:19;;;;;;;7.50;6.20;;;29.20;76.00;;;;;;4849495;29;20064;-72
2023/05/21 11:49:45;;;;;;;7.93;6.70;;;29.30;74.70;;;;;;4870005;29;20093;-72
2023/05/21 11:52:12;;;;;;;8.05;6.28;;;29.20;74.70;;;;;;4870044;29;20073;-72
2023/05/21 11:54:45;;;;;;;7.60;6.22;;;29.30;74.20;;;;;;4870198;29;20309;-72
2023/05/21 11:57:14;;;;;;;6.80;5.50;;;29.50;74.10;;;;;;4864633;29;20349;-71
2023/05/21 11:59:40;;;;;;;7.05;5.85;;;29.30;72.50;;;;;;4869877;29;20045;-72
2023/05/21 12:02:07;;;;;;;7.65;5.75;;;29.40;73.70;;;;;;4869390;29;20342;-71
2023/05/21 12:04:35;;;;;;;7.22;6.10;;;29.60;73.60;;;;;;4869403;29;20548;-71
2023/05/21 12:07:06;;;;;;;7.88;5.60;;;29.80;72.70;;;;;;4869705;29;20037;-70
2023/05/21 12:09:45;;;;;;;7.03;5.72;;;29.80;73.20;;;;;;4868353;29;20041;-71
2023/05/21 12:12:16;;;;;;;7.40;5.78;;;29.80;71.90;;;;;;4873883;29;20044;-72
2023/05/21 12:14:46;;;;;;;6.43;5.20;;;29.90;70.90;;;;;;4872168;29;20096;-70
2023/05/21 12:17:15;;;;;;;6.07;5.38;;;30.00;71.40;;;;;;4871654;29;20104;-71
2023/05/21 12:19:41;;;;;;;7.43;5.93;;;30.00;70.20;;;;;;4888522;29;20025;-71
2023/05/21 12:22:08;;;;;;;8.15;5.63;;;30.30;70.80;;;;;;4888124;29;20222;-72
2023/05/21 12:24:36;;;;;;;6.47;5.80;;;30.60;70.70;;;;;;4869078;29;20041;-70
2023/05/21 12:27:08;;;;;;;9.75;5.63;;;30.80;69.70;;;;;;4869525;29;20070;-72
2023/05/21 12:29:39;;;;;;;6.20;5.57;;;30.70;69.20;;;;;;4869069;29;20034;-72
2023/05/21 12:32:07;;;;;;;6.60;5.25;;;30.50;70.40;;;;;;4869985;29;20045;-73
2023/05/21 12:34:47;;;;;;;7.82;5.30;;;30.60;71.20;;;;;;4853765;29;20086;-73
2023/05/21 12:37:18;;;;;;;6.50;5.35;;;30.70;69.20;;;;;;4874491;29;20033;-73
2023/05/21 12:39:45;;;;;;;6.57;5.07;;;30.40;68.30;;;;;;4873396;29;20057;-73
2023/05/21 12:42:11;;;;;;;6.77;4.77;;;30.70;68.00;;;;;;4872629;29;20029;-74
2023/05/21 12:44:45;;;;;;;6.68;4.47;;;30.60;64.70;;;;;;4872673;29;20033;-72
2023/05/21 12:47:12;;;;;;;5.97;4.60;;;30.60;65.10;;;;;;4872733;29;20056;-72
2023/05/21 12:49:46;;;;;;;5.57;4.30;;;30.90;66.00;;;;;;4872193;29;20061;-73
2023/05/21 12:52:14;;;;;;;4.93;4.30;;;30.90;64.00;;;;;;4872991;29;20041;-72
2023/05/21 12:54:45;;;;;;;6.20;4.15;;;30.80;64.10;;;;;;4855963;29;20318;-70
2023/05/21 12:57:24;;;;;;;5.82;4.50;;;30.60;65.40;;;;;;4874103;29;20033;-72
2023/05/21 12:59:54;;;;;;;4.53;3.65;;;30.60;64.30;;;;;;4856497;29;20252;-72
2023/05/21 13:02:25;;;;;;;5.05;4.20;;;30.80;63.90;;;;;;4883777;29;20154;-71
2023/05/21 13:04:59;;;;;;;4.47;3.92;;;30.70;63.90;;;;;;4864947;29;20072;-73
2023/05/21 13:07:27;;;;;;;5.10;4.18;;;31.00;64.20;;;;;;4864585;29;20064;-72
2023/05/21 13:09:54;;;;;;;5.20;3.90;;;31.40;62.70;;;;;;4867850;29;20033;-71
2023/05/21 13:12:21;;;;;;;4.82;3.75;;;31.60;61.70;;;;;;4872004;29;20033;-70
2023/05/21 13:14:52;;;;;;;6.13;3.87;;;31.70;59.70;;;;;;4872837;29;20022;-71
2023/05/21 13:17:19;;;;;;;4.63;3.75;;;31.70;61.40;;;;;;4871848;29;20056;-72
2023/05/21 13:20:05;;;;;;;6.53;3.78;;;31.30;60.40;;;;;;4872391;29;20287;-72
2023/05/21 13:22:30;;;;;;;5.88;3.67;;;31.70;61.80;;;;;;4871709;29;20265;-71
2023/05/21 13:24:56;;;;;;;3.95;3.53;;;32.20;60.20;;;;;;4867756;29;20032;-72
2023/05/21 13:27:22;;;;;;;5.32;4.05;;;32.00;59.80;;;;;;4889997;29;20108;-70
2023/05/21 13:29:47;;;;;;;6.15;4.18;;;32.20;60.60;;;;;;4890809;29;20077;-71
2023/05/21 13:32:13;;;;;;;5.07;3.85;;;32.40;59.50;;;;;;4890382;29;20366;-71
2023/05/21 13:34:39;;;;;;;12.68;4.95;;;32.70;60.20;;;;;;4890257;29;20028;-70
2023/05/21 13:37:04;;;;;;;5.90;3.97;;;33.00;59.80;;;;;;4878039;29;20021;-71
2023/05/21 13:39:30;;;;;;;5.60;3.97;;;33.40;58.40;;;;;;4871776;29;20029;-71
2023/05/21 13:41:56;;;;;;;5.75;4.18;;;33.80;59.00;;;;;;4871941;29;20029;-70
2023/05/21 13:44:21;;;;;;;6.13;4.22;;;34.20;57.90;;;;;;4862726;29;20222;-72
2023/05/21 13:46:47;;;;;;;5.32;4.30;;;34.50;59.30;;;;;;4889902;29;20024;-72
2023/05/21 13:49:13;;;;;;;6.25;4.25;;;34.80;57.70;;;;;;4890037;29;20223;-71
2023/05/21 13:51:39;;;;;;;5.43;4.13;;;34.60;57.70;;;;;;4889887;29;20727;-71
2023/05/21 13:54:05;;;;;;;5.38;3.97;;;34.40;57.70;;;;;;4890113;29;20092;-71
2023/05/21 13:56:32;;;;;;;5.60;4.43;;;35.00;57.60;;;;;;4882332;29;20070;-71
2023/05/21 13:58:58;;;;;;;6.45;4.05;;;35.90;56.70;;;;;;4870818;29;20033;-71
2023/05/21 14:01:24;;;;;;;7.20;3.80;;;36.40;56.10;;;;;;4870984;29;20029;-72
2023/05/21 14:03:50;;;;;;;6.13;3.90;;;35.90;55.80;;;;;;4876300;29;20104;-71
2023/05/21 14:06:15;;;;;;;4.63;3.42;;;35.80;55.90;;;;;;4889953;29;20025;-71
2023/05/21 14:08:41;;;;;;;5.47;3.85;;;35.70;55.70;;;;;;4862423;29;20045;-71
2023/05/21 14:11:10;;;;;;;4.80;3.80;;;35.40;55.80;;;;;;4889869;29;20090;-72
2023/05/21 14:13:36;;;;;;;4.93;4.10;;;35.20;56.70;;;;;;4889323;29;20084;-71
2023/05/21 14:16:02;;;;;;;5.10;3.78;;;34.80;56.90;;;;;;4889988;29;20033;-71
2023/05/21 14:18:27;;;;;;;7.45;4.15;;;34.80;56.80;;;;;;4889468;29;20033;-72
2023/05/21 14:20:53;;;;;;;5.78;4.00;;;34.90;56.10;;;;;;4889751;29;20057;-71
2023/05/21 14:23:19;;;;;;;8.10;4.10;;;34.70;56.10;;;;;;4889593;29;20089;-72
2023/05/21 14:25:44;;;;;;;5.50;3.92;;;34.60;57.30;;;;;;4872651;29;20199;-73
2023/05/21 14:28:10;;;;;;;5.63;3.83;;;34.90;55.90;;;;;;4889244;29;20041;-71
2023/05/21 14:30:36;;;;;;;5.00;3.65;;;34.70;56.00;;;;;;4872648;29;20051;-71
2023/05/21 14:33:02;;;;;;;6.32;4.20;;;34.60;56.30;;;;;;4889642;29;20028;-71
2023/05/21 14:35:27;;;;;;;6.70;4.18;;;34.20;56.10;;;;;;4872442;29;20357;-71
2023/05/21 14:37:53;;;;;;;6.88;4.05;;;33.80;57.30;;;;;;4870931;29;20100;-72
2023/05/21 14:40:19;;;;;;;4.72;3.85;;;33.50;56.90;;;;;;4870973;29;20042;-71
2023/05/21 14:42:45;;;;;;;5.43;3.95;;;32.80;57.60;;;;;;4870421;29;20104;-71
2023/05/21 14:45:11;;;;;;;6.32;4.00;;;32.40;57.60;;;;;;4870664;29;20045;-71
2023/05/21 14:47:36;;;;;;;4.47;3.65;;;32.10;57.70;;;;;;4870096;29;20307;-71
2023/05/21 14:50:02;;;;;;;6.32;3.63;;;31.60;57.20;;;;;;4870251;29;20219;-71
2023/05/21 14:52:28;;;;;;;5.03;3.70;;;31.40;57.90;;;;;;4869948;29;20029;-71
2023/05/21 14:54:53;;;;;;;6.05;3.80;;;31.20;58.10;;;;;;4865864;29;20036;-72
2023/05/21 14:57:19;;;;;;;5.78;3.17;;;31.20;57.20;;;;;;4865370;29;20039;-72
2023/05/21 14:59:45;;;;;;;5.95;3.10;;;31.20;55.90;;;;;;4869457;29;20048;-72
2023/05/21 15:02:11;;;;;;;6.32;3.55;;;31.20;56.10;;;;;;4869745;29;20068;-70
2023/05/21 15:04:37;;;;;;;4.50;3.20;;;31.30;56.60;;;;;;4864132;29;20044;-70
2023/05/21 15:07:03;;;;;;;5.50;3.30;;;31.00;57.70;;;;;;4881361;29;20029;-71
2023/05/21 15:09:29;;;;;;;6.07;4.07;;;31.10;58.00;;;;;;4869405;29;20025;-72
2023/05/21 15:11:55;;;;;;;6.32;3.50;;;31.50;57.00;;;;;;4872475;29;20041;-71
2023/05/21 15:14:22;;;;;;;5.60;3.05;;;31.40;55.60;;;;;;4857261;29;20041;-72
2023/05/21 15:16:47;;;;;;;4.75;2.75;;;31.40;54.20;;;;;;4888257;29;20044;-71
2023/05/21 15:19:13;;;;;;;4.80;2.88;;;31.50;53.10;;;;;;4888775;29;20029;-72
2023/05/21 15:21:39;;;;;;;7.72;2.95;;;31.40;53.00;;;;;;4871803;29;20060;-71
2023/05/21 15:24:05;;;;;;;3.88;2.65;;;32.00;53.10;;;;;;4888951;29;20215;-71
2023/05/21 15:26:30;;;;;;;4.50;2.90;;;32.50;55.00;;;;;;4871686;29;20063;-71
2023/05/21 15:28:56;;;;;;;4.25;2.78;;;33.10;52.80;;;;;;4888479;29;20029;-71
2023/05/21 15:31:22;;;;;;;4.10;2.50;;;33.00;51.00;;;;;;4888701;29;20037;-71
2023/05/21 15:33:48;;;;;;;3.17;2.58;;;32.90;51.00;;;;;;4888392;29;20088;-71
2023/05/21 15:36:13;;;;;;;4.60;2.80;;;33.50;50.40;;;;;;4847796;29;20041;-71
2023/05/21 15:38:39;;;;;;;4.22;2.55;;;33.40;50.00;;;;;;4849995;29;20371;-71
2023/05/21 15:41:05;;;;;;;3.70;2.58;;;33.70;49.60;;;;;;4870414;29;20030;-70
2023/05/21 15:43:31;;;;;;;5.03;3.25;;;33.90;49.50;;;;;;4869534;29;20040;-71
2023/05/21 15:45:57;;;;;;;3.47;2.50;;;34.10;50.40;;;;;;4850587;29;20109;-72
2023/05/21 15:48:24;;;;;;;7.95;3.00;;;35.00;49.80;;;;;;4832575;29;20041;-72
2023/05/21 15:50:49;;;;;;;3.50;2.50;;;35.10;49.60;;;;;;4869860;29;20038;-72
2023/05/21 15:53:15;;;;;;;3.85;2.50;;;35.80;50.40;;;;;;4869814;29;20243;-72
2023/05/21 15:55:41;;;;;;;3.20;2.45;;;35.50;49.10;;;;;;4869472;29;20033;-71
2023/05/21 15:58:07;;;;;;;5.28;3.28;;;35.80;48.60;;;;;;4856800;29;20032;-71
2023/05/21 16:00:33;;;;;;;3.80;3.08;;;35.80;50.20;;;;;;4840576;29;20032;-71
2023/05/21 16:02:59;;;;;;;4.32;2.85;;;35.90;50.50;;;;;;4868660;29;20041;-72
2023/05/21 16:05:25;;;;;;;4.65;3.42;;;35.90;51.00;;;;;;4888488;29;20117;-71
2023/05/21 16:07:51;;;;;;;5.15;3.47;;;35.90;51.00;;;;;;4872005;29;20256;-71
2023/05/21 16:10:17;;;;;;;4.40;2.97;;;35.30;51.00;;;;;;4874112;29;20041;-72
2023/05/21 16:12:43;;;;;;;5.25;3.30;;;34.90;53.30;;;;;;4875074;29;20382;-71
2023/05/21 16:15:09;;;;;;;4.80;3.20;;;34.20;52.60;;;;;;4892056;29;20033;-71
2023/05/21 16:17:35;;;;;;;4.97;3.70;;;33.90;53.40;;;;;;4874917;29;20043;-72
2023/05/21 16:20:00;;;;;;;5.82;4.15;;;33.60;55.20;;;;;;4891864;29;20064;-71
2023/05/21 16:22:26;;;;;;;5.85;3.72;;;33.40;54.30;;;;;;4859727;29;20041;-72
2023/05/21 16:24:53;;;;;;;6.90;3.95;;;32.90;54.60;;;;;;4874741;29;20039;-71
2023/05/21 16:27:18;;;;;;;4.50;3.78;;;32.80;55.70;;;;;;4891832;29;20040;-71
2023/05/21 16:29:44;;;;;;;5.22;4.15;;;32.50;56.60;;;;;;4891191;29;20104;-71
2023/05/21 16:32:12;;;;;;;4.75;4.00;;;32.60;56.10;;;;;;4891852;29;20151;-72
2023/05/21 16:34:38;;;;;;;5.72;3.92;;;32.30;56.50;;;;;;4891336;29;20036;-71
2023/05/21 16:37:04;;;;;;;4.57;3.58;;;32.20;56.40;;;;;;4859631;29;20109;-72
2023/05/21 16:39:30;;;;;;;6.35;3.78;;;32.30;57.10;;;;;;4868828;29;20044;-71
2023/05/21 16:41:58;;;;;;;5.72;4.30;;;32.20;56.80;;;;;;4872611;29;20030;-72
2023/05/21 16:44:25;;;;;;;7.22;4.05;;;32.00;57.40;;;;;;4872540;29;20248;-71
2023/05/21 16:46:51;;;;;;;6.32;4.50;;;31.80;57.20;;;;;;4855745;29;20239;-72
2023/05/21 16:49:16;;;;;;;5.38;4.32;;;31.50;56.70;;;;;;4872863;29;20037;-72
2023/05/21 16:51:42;;;;;;;5.68;4.47;;;31.20;57.80;;;;;;4872476;29;20045;-72
2023/05/21 16:54:08;;;;;;;8.60;4.70;;;31.00;58.30;;;;;;4872744;29;20056;-71
2023/05/21 16:56:34;;;;;;;7.88;4.50;;;30.90;58.60;;;;;;4865151;29;20056;-72
2023/05/21 16:58:59;;;;;;;6.78;4.93;;;30.60;58.60;;;;;;4872503;29;20021;-71
2023/05/21 17:01:25;;;;;;;7.35;4.75;;;30.20;59.30;;;;;;4855691;29;20290;-71
2023/05/21 17:03:51;;;;;;;6.20;4.70;;;30.00;59.60;;;;;;4882770;29;20295;-71
2023/05/21 17:06:17;;;;;;;6.55;4.63;;;29.70;61.30;;;;;;4874296;29;20045;-70
2023/05/21 17:08:43;;;;;;;6.50;5.22;;;29.60;61.00;;;;;;4890204;29;20036;-71
2023/05/21 17:11:08;;;;;;;7.15;4.95;;;29.50;61.00;;;;;;4890657;29;20069;-72
2023/05/21 17:13:34;;;;;;;7.00;4.85;;;29.50;62.60;;;;;;4890754;29;20039;-72
2023/05/21 17:16:00;;;;;;;7.03;4.78;;;29.60;62.60;;;;;;4874486;29;20032;-72
2023/05/21 17:18:26;;;;;;;6.28;4.80;;;29.40;61.00;;;;;;4890730;29;20032;-72
2023/05/21 17:20:52;;;;;;;6.65;5.07;;;29.20;62.60;;;;;;4888919;29;20065;-71
2023/05/21 17:23:18;;;;;;;5.57;4.90;;;29.00;62.10;;;;;;4880074;29;20081;-71
2023/05/21 17:25:43;;;;;;;7.43;5.57;;;29.00;62.30;;;;;;4890488;29;20021;-72
2023/05/21 17:28:10;;;;;;;7.90;5.70;;;29.00;62.70;;;;;;4890716;29;20032;-70
2023/05/21 17:30:35;;;;;;;7.47;5.68;;;28.90;62.50;;;;;;4858934;29;20038;-72
2023/05/21 17:33:02;;;;;;;6.07;4.93;;;28.90;63.80;;;;;;4874654;29;20120;-73
2023/05/21 17:35:28;;;;;;;8.07;5.45;;;29.00;63.70;;;;;;4871889;29;20037;-70
2023/05/21 17:37:54;;;;;;;7.03;4.95;;;28.90;62.20;;;;;;4884963;29;20256;-70
2023/05/21 17:40:22;;;;;;;6.70;5.32;;;28.80;62.40;;;;;;4871808;29;20026;-71
2023/05/21 17:42:48;;;;;;;6.32;5.20;;;28.80;63.20;;;;;;4871223;29;20044;-72
2023/05/21 17:45:14;;;;;;;7.30;5.22;;;28.70;62.80;;;;;;4871519;29;20034;-71
2023/05/21 17:47:39;;;;;;;6.93;5.57;;;28.60;63.80;;;;;;4872456;29;20196;-72